Airfield :
LOGIN :

Register | Disclaimer

   EN    FR    IT 

 










Legend :    VFR   Marginal VFR   IFR   Intensive IFR   Very Intensive IFR
Visi :
Ceiling :
>= 8 km
>= 3000ft
5 to 8 km
1000 to 3000 ft
1500m to 5 km
500 to 1000 ft
800 to 1500m
200 to 500 ft
< 800m
< 200 ft
Symbols :   Thunderstorms  Fog  Heavy snow  Heavy precipitations  Wind > 20 kt
SIGMETs :     Misc.  Thunderstorms  Icing  Turbulence  Mountain Waves  Volcanic Ashes







- Airport Elevation : 794 ft


LKCV - Čáslav Air Base

CURRENT METAR :
  • 160500Z 25007KT 9999 SCT018 OVC045 01/M00 Q1002 NOSIG RMK BLU BLU

EXPIRED METARs :
  • 160400Z 24005KT 9999 OVC034 02/M01 Q1001 NOSIG RMK BLU BLU
  • 160300Z 20005KT 9999 BKN027 02/M01 Q1001 NOSIG RMK BLU BLU

TAF TAF LKCV
Valid from the 16 at 00:00 until the 17 at 00:00 UTC


152300Z 1600/1700 VRB02KT 9999 BKN040
PROB40
TEMPO 1600/1610 4000 SHRA BKN012
BECMG 1606/1608 28006KT
No reported NOTAMs for that airfield.



MET'MAP, your aeronautical weather chart ! - Copyright ORBIFLY December 2007 - Disclaimer

ORBIFLY MET'MAP TEAM :

Programming & Development : Alexandra Zaïnal
Concept & Development : Baudouin d'Aumeries
Co-Development & Prog : Marc-Olivier Méhu
Technical & hardware support : Manuel Goepfert

Contact : metmap@orbifly.com




SOURCES & CREDITS :

   NOAA